createdAt,value
2018-06-08T00:00:53.838Z,50.00
2018-06-08T00:03:22.393Z,42.43
2018-06-08T00:05:50.959Z,48.03
2018-06-08T00:08:19.482Z,54.10
2018-06-08T00:10:48.673Z,50.67
2018-06-08T00:13:17.225Z,52.50
2018-06-08T00:15:45.480Z,53.33
2018-06-08T00:18:15.916Z,52.93
2018-06-08T00:20:44.530Z,52.93
2018-06-08T00:23:14.582Z,55.07
2018-06-08T00:25:44.131Z,39.47
2018-06-08T00:28:12.829Z,49.67
2018-06-08T00:30:41.434Z,47.70
2018-06-08T00:33:10.166Z,48.07
2018-06-08T00:35:38.721Z,45.73
2018-06-08T00:38:07.375Z,43.70
2018-06-08T00:40:36.839Z,42.00
2018-06-08T00:43:05.574Z,36.57
2018-06-08T00:45:34.140Z,43.00
2018-06-08T00:48:02.765Z,32.83
2018-06-08T00:50:31.350Z,45.53
2018-06-08T00:52:59.930Z,48.00
2018-06-08T00:55:28.545Z,42.63
2018-06-08T00:57:57.135Z,47.80
2018-06-08T01:00:25.674Z,38.50
2018-06-08T01:02:54.234Z,41.43
2018-06-08T01:05:22.758Z,42.73
2018-06-08T01:07:51.342Z,42.87
2018-06-08T01:10:19.906Z,41.27
2018-06-08T01:12:48.452Z,39.17
2018-06-08T01:15:17.014Z,41.83
2018-06-08T01:17:45.566Z,40.67
2018-06-08T01:20:14.114Z,40.93
2018-06-08T01:22:42.669Z,40.03
2018-06-08T01:25:11.255Z,40.27
2018-06-08T01:27:39.847Z,37.13
2018-06-08T01:30:08.390Z,34.40
2018-06-08T01:32:36.933Z,40.40
2018-06-08T01:35:05.981Z,38.87
2018-06-08T01:37:34.518Z,37.23
2018-06-08T01:40:03.093Z,31.67
2018-06-08T01:42:31.651Z,30.50
2018-06-08T01:45:00.240Z,30.77
2018-06-08T01:47:28.822Z,37.80
2018-06-08T01:49:57.345Z,33.53
2018-06-08T01:52:25.935Z,37.73
2018-06-08T01:54:54.469Z,26.13
2018-06-08T01:57:23.024Z,23.53
2018-06-08T01:59:51.571Z,36.47
2018-06-08T02:02:20.155Z,40.20
2018-06-08T02:04:48.739Z,31.47
2018-06-08T02:07:17.270Z,36.90
2018-06-08T02:09:45.817Z,38.77
2018-06-08T02:12:14.370Z,29.53
2018-06-08T02:14:42.930Z,40.90
2018-06-08T02:17:11.480Z,44.07
2018-06-08T02:19:40.054Z,39.50
2018-06-08T02:22:08.626Z,41.33
2018-06-08T02:24:37.214Z,43.27
2018-06-08T02:27:05.753Z,46.40
2018-06-08T02:29:34.293Z,44.80
2018-06-08T02:32:02.926Z,44.73
2018-06-08T02:34:31.526Z,45.20
2018-06-08T02:37:00.074Z,44.70
2018-06-08T02:39:28.640Z,53.33
2018-06-08T02:41:57.174Z,50.30
2018-06-08T02:44:25.718Z,46.90
2018-06-08T02:46:54.294Z,48.07
2018-06-08T02:49:22.870Z,46.17
2018-06-08T02:51:51.453Z,51.80
2018-06-08T02:54:19.983Z,52.43
2018-06-08T02:56:48.555Z,57.70
2018-06-08T02:59:17.082Z,55.83
2018-06-08T03:01:45.630Z,55.70
2018-06-08T03:04:14.203Z,56.70
2018-06-08T03:06:42.767Z,43.63
2018-06-08T03:09:11.292Z,51.03
2018-06-08T03:11:39.856Z,56.33
2018-06-08T03:14:08.401Z,59.07
2018-06-08T03:16:37.004Z,62.20
2018-06-08T03:19:05.575Z,61.13
2018-06-08T03:21:34.130Z,56.63
2018-06-08T03:24:02.692Z,65.33
2018-06-08T03:26:31.278Z,67.00
2018-06-08T03:28:59.811Z,63.03
2018-06-08T03:31:28.410Z,61.87
2018-06-08T03:33:57.094Z,66.53
2018-06-08T03:36:25.638Z,61.77
2018-06-08T03:38:54.218Z,67.13
2018-06-08T03:41:22.755Z,67.43
2018-06-08T03:43:51.322Z,67.80
2018-06-08T03:46:19.866Z,67.23
2018-06-08T03:48:48.433Z,58.90
2018-06-08T03:51:17.743Z,60.50
2018-06-08T03:53:46.302Z,60.90
2018-06-08T03:56:14.866Z,62.10
2018-06-08T03:58:43.434Z,57.07
2018-06-08T04:01:12.021Z,56.93
2018-06-08T04:03:40.630Z,58.33
2018-06-08T04:06:09.223Z,58.80
2018-06-08T04:08:37.836Z,62.73
2018-06-08T04:11:07.233Z,58.77
2018-06-08T04:13:35.793Z,65.37
2018-06-08T04:16:04.400Z,58.30
2018-06-08T04:18:32.977Z,59.67
2018-06-08T04:21:01.524Z,57.13
2018-06-08T04:23:30.058Z,52.27
2018-06-08T04:25:58.590Z,69.60
2018-06-08T04:28:27.150Z,56.50
2018-06-08T04:30:55.680Z,58.00
2018-06-08T04:33:24.238Z,63.77
2018-06-08T04:35:53.450Z,59.17
2018-06-08T04:38:22.061Z,61.13
2018-06-08T04:40:50.628Z,58.53
2018-06-08T04:43:19.166Z,58.53
2018-06-08T04:45:47.739Z,60.13
2018-06-08T04:48:16.351Z,45.20
2018-06-08T04:50:44.907Z,57.30
2018-06-08T04:53:13.485Z,59.97
2018-06-08T04:55:42.038Z,58.50
2018-06-08T04:58:10.607Z,51.90
2018-06-08T05:00:39.163Z,58.23
2018-06-08T05:03:07.696Z,63.93
2018-06-08T05:05:36.299Z,62.77
2018-06-08T05:08:04.956Z,53.83
2018-06-08T05:10:33.520Z,54.63
2018-06-08T05:13:02.120Z,54.00
2018-06-08T05:15:30.667Z,55.83
2018-06-08T05:17:59.207Z,53.63
2018-06-08T05:20:27.831Z,50.40
2018-06-08T05:22:56.378Z,52.90
2018-06-08T05:25:24.962Z,56.03
2018-06-08T05:27:53.538Z,52.53
2018-06-08T05:30:24.093Z,52.60
2018-06-08T05:32:52.674Z,58.57
2018-06-08T05:35:21.318Z,62.50
2018-06-08T05:37:49.842Z,47.67
2018-06-08T05:40:18.433Z,54.80
2018-06-08T05:42:46.977Z,53.53
2018-06-08T05:45:15.659Z,59.70
2018-06-08T05:47:44.227Z,56.57
2018-06-08T05:50:12.760Z,58.47
2018-06-08T05:52:41.345Z,43.90
2018-06-08T05:55:09.941Z,52.03
2018-06-08T05:57:38.517Z,49.10
2018-06-08T06:00:07.129Z,57.40
2018-06-08T06:02:35.691Z,53.97
2018-06-08T06:05:04.299Z,52.30
2018-06-08T06:07:32.879Z,42.80
2018-06-08T06:10:01.448Z,50.03
2018-06-08T06:12:30.059Z,60.20
2018-06-08T06:14:58.607Z,51.53
2018-06-08T06:17:27.251Z,51.70
2018-06-08T06:19:55.789Z,53.30
2018-06-08T06:22:24.358Z,51.77
2018-06-08T06:24:52.946Z,43.50
2018-06-08T06:27:21.529Z,56.40
2018-06-08T06:29:50.084Z,50.87
2018-06-08T06:32:18.684Z,56.73
2018-06-08T06:34:47.258Z,57.23
2018-06-08T06:37:15.849Z,55.03
2018-06-08T06:39:44.390Z,49.83
2018-06-08T06:42:12.935Z,55.20
2018-06-08T06:44:41.497Z,60.07
2018-06-08T06:47:10.131Z,56.60
2018-06-08T06:49:38.730Z,53.90
2018-06-08T06:52:07.298Z,52.73
2018-06-08T06:54:35.854Z,53.17
2018-06-08T06:57:04.452Z,48.17
2018-06-08T06:59:32.987Z,50.17
2018-06-08T07:02:01.542Z,37.03
2018-06-08T07:04:30.129Z,55.53
2018-06-08T07:06:58.716Z,50.60
2018-06-08T07:09:27.271Z,53.80
2018-06-08T07:11:55.798Z,50.90
2018-06-08T07:14:24.353Z,45.77
2018-06-08T07:16:52.864Z,51.87
2018-06-08T07:19:21.464Z,47.20
2018-06-08T07:21:50.043Z,45.97
2018-06-08T07:24:18.623Z,49.43
2018-06-08T07:26:47.199Z,51.50
2018-06-08T07:29:15.748Z,53.07
2018-06-08T07:31:44.496Z,48.10
2018-06-08T07:34:12.990Z,44.93
2018-06-08T07:36:41.550Z,42.60
2018-06-08T07:39:10.378Z,41.60
2018-06-08T07:41:38.925Z,44.07
2018-06-08T07:44:07.488Z,49.07
2018-06-08T07:46:36.051Z,40.27
2018-06-08T07:49:04.716Z,45.07
2018-06-08T07:51:33.272Z,41.67
2018-06-08T07:54:01.814Z,44.90
2018-06-08T07:56:30.420Z,39.23
2018-06-08T07:58:58.966Z,41.30
2018-06-08T08:01:27.520Z,40.33
2018-06-08T08:03:56.098Z,36.53
2018-06-08T08:06:24.643Z,38.80
2018-06-08T08:08:53.231Z,35.57
2018-06-08T08:11:21.835Z,34.63
2018-06-08T08:13:50.381Z,36.37
2018-06-08T08:16:18.963Z,33.30
2018-06-08T08:18:47.529Z,33.83
2018-06-08T08:21:16.136Z,28.90
2018-06-08T08:23:44.697Z,31.60
2018-06-08T08:26:13.231Z,31.37
2018-06-08T08:28:41.793Z,33.33
2018-06-08T08:31:10.374Z,36.53
2018-06-08T08:39:24.095Z,29.80
2018-06-08T08:41:52.673Z,40.43
2018-06-08T08:44:21.310Z,34.53
2018-06-08T08:46:49.910Z,36.03
2018-06-08T08:49:18.594Z,41.40
2018-06-08T08:51:47.279Z,36.07
2018-06-08T08:54:15.836Z,40.57
2018-06-08T08:56:44.451Z,35.37
2018-06-08T08:59:13.061Z,38.27
2018-06-08T09:01:41.696Z,40.10
2018-06-08T09:04:10.306Z,43.20
2018-06-08T09:06:38.903Z,40.87
2018-06-08T09:09:07.765Z,42.73
2018-06-08T09:11:36.350Z,46.83
2018-06-08T09:14:05.072Z,46.37
2018-06-08T09:16:33.763Z,44.23
2018-06-08T09:19:02.462Z,46.53
2018-06-08T09:21:31.084Z,42.73
2018-06-08T09:24:01.490Z,40.37
2018-06-08T09:26:30.166Z,34.73
2018-06-08T09:28:58.729Z,44.57
2018-06-08T09:31:27.775Z,44.43
2018-06-08T09:33:56.377Z,47.83
2018-06-08T09:36:24.988Z,43.83
2018-06-08T09:38:53.570Z,50.80
2018-06-08T09:41:22.262Z,50.43
2018-06-08T09:43:50.924Z,50.10
2018-06-08T09:46:19.517Z,53.23
2018-06-08T09:48:48.107Z,50.73
2018-06-08T09:51:16.728Z,51.60
2018-06-08T09:53:45.383Z,51.83
2018-06-08T09:56:13.979Z,58.13
2018-06-08T09:58:42.542Z,55.90
2018-06-08T10:01:11.154Z,60.63
2018-06-08T10:03:39.725Z,56.53
2018-06-08T10:06:08.301Z,63.40
2018-06-08T10:08:36.907Z,65.80
2018-06-08T10:11:05.498Z,68.57
2018-06-08T10:13:34.923Z,67.07
2018-06-08T10:16:04.349Z,58.33
2018-06-08T10:18:32.950Z,61.87
2018-06-08T10:21:01.524Z,66.87
2018-06-08T10:23:30.156Z,61.20
2018-06-08T10:25:59.494Z,60.83
2018-06-08T10:28:28.034Z,56.97
2018-06-08T10:30:56.567Z,60.60
2018-06-08T10:33:25.119Z,62.20
2018-06-08T10:35:53.707Z,51.40
2018-06-08T10:38:22.250Z,54.90
2018-06-08T10:40:50.818Z,41.33
2018-06-08T10:43:19.347Z,53.83
2018-06-08T10:45:47.881Z,48.40
2018-06-08T10:48:16.463Z,48.43
2018-06-08T10:50:45.074Z,56.43
2018-06-08T10:53:13.612Z,50.47
2018-06-08T10:55:42.130Z,50.57
2018-06-08T10:58:10.706Z,56.37
2018-06-08T11:00:39.235Z,45.53
2018-06-08T11:03:07.751Z,51.37
2018-06-08T11:05:36.470Z,45.07
2018-06-08T11:08:05.059Z,43.33
2018-06-08T11:10:33.579Z,41.80
2018-06-08T11:13:02.099Z,43.60
2018-06-08T11:15:30.664Z,44.40
2018-06-08T11:17:59.226Z,46.47
2018-06-08T11:20:27.789Z,38.47
2018-06-08T11:22:56.427Z,42.70
2018-06-08T11:25:24.967Z,29.77
2018-06-08T11:27:53.532Z,32.03
2018-06-08T11:30:22.051Z,35.97
2018-06-08T11:32:50.603Z,49.20
2018-06-08T11:35:19.118Z,45.27
2018-06-08T11:37:47.750Z,42.70
2018-06-08T11:40:16.302Z,43.67
2018-06-08T11:42:44.904Z,40.03
2018-06-08T11:45:13.467Z,37.43
2018-06-08T11:47:42.116Z,50.87
2018-06-08T11:50:10.708Z,38.70
2018-06-08T11:52:39.271Z,45.07
2018-06-08T11:55:07.829Z,50.73
2018-06-08T11:57:36.385Z,47.57
2018-06-08T12:00:05.307Z,41.40
2018-06-08T12:02:33.872Z,43.80
2018-06-08T12:05:02.403Z,45.23
2018-06-08T12:07:30.975Z,41.40
2018-06-08T12:09:59.514Z,46.73
2018-06-08T12:12:28.099Z,42.33
2018-06-08T12:14:56.653Z,51.87
2018-06-08T12:17:25.274Z,47.70
2018-06-08T12:19:53.778Z,51.63
2018-06-08T12:22:22.305Z,47.23
2018-06-08T12:24:50.858Z,45.77
2018-06-08T12:27:19.410Z,45.07
2018-06-08T12:29:47.934Z,46.63
2018-06-08T12:32:16.489Z,42.90
2018-06-08T12:34:45.024Z,52.53
2018-06-08T12:37:13.616Z,40.03
2018-06-08T12:39:42.194Z,43.07
2018-06-08T12:42:10.778Z,47.47
2018-06-08T12:44:39.327Z,42.00
2018-06-08T12:47:07.894Z,41.30
2018-06-08T12:49:36.553Z,42.00
2018-06-08T12:52:05.173Z,37.70
2018-06-08T12:54:33.803Z,39.30
2018-06-08T12:57:02.367Z,37.53
2018-06-08T12:59:30.939Z,42.17
2018-06-08T13:01:59.527Z,44.80
2018-06-08T13:04:28.072Z,39.50
2018-06-08T13:06:56.629Z,38.40
2018-06-08T13:09:25.200Z,37.43
2018-06-08T13:11:53.763Z,36.00
2018-06-08T13:14:22.352Z,43.20
2018-06-08T13:16:50.938Z,42.00
2018-06-08T13:19:19.489Z,38.47
2018-06-08T13:21:48.218Z,43.67
2018-06-08T13:24:16.742Z,39.50
2018-06-08T13:26:45.328Z,35.97
2018-06-08T13:29:13.885Z,37.60
2018-06-08T13:31:42.502Z,35.00
2018-06-08T13:34:11.058Z,32.40
2018-06-08T13:36:39.671Z,31.63
2018-06-08T13:39:08.330Z,32.37
2018-06-08T13:41:36.975Z,37.37
2018-06-08T13:44:05.694Z,34.03
2018-06-08T13:46:46.227Z,35.40
2018-06-08T13:49:14.829Z,33.33
2018-06-08T13:51:43.462Z,38.13
2018-06-08T13:54:12.029Z,34.10
2018-06-08T13:56:40.626Z,33.43
2018-06-08T13:59:09.194Z,31.57
2018-06-08T14:01:37.818Z,34.73
2018-06-08T14:04:06.386Z,33.10
2018-06-08T14:06:35.161Z,34.57
2018-06-08T14:09:04.689Z,38.57
2018-06-08T14:11:33.269Z,38.77
2018-06-08T14:14:01.815Z,33.33
2018-06-08T14:16:30.407Z,37.83
2018-06-08T14:18:58.951Z,34.77
2018-06-08T14:21:27.633Z,33.57
2018-06-08T14:23:56.189Z,32.93
2018-06-08T14:26:24.760Z,28.27
2018-06-08T14:28:53.323Z,38.20
2018-06-08T14:31:21.996Z,36.50
2018-06-08T14:36:43.266Z,35.90
2018-06-08T14:39:11.882Z,37.03
2018-06-08T14:41:42.892Z,34.73
2018-06-08T14:44:11.554Z,37.55
2018-06-08T14:46:40.314Z,34.10
2018-06-08T14:49:08.913Z,37.20
2018-06-08T14:51:37.497Z,34.07
2018-06-08T14:54:06.087Z,33.90
2018-06-08T14:56:34.742Z,34.90
2018-06-08T14:59:03.471Z,29.67
2018-06-08T15:01:32.100Z,28.47
2018-06-08T15:04:00.683Z,30.33
2018-06-08T15:06:29.278Z,32.87
2018-06-08T15:08:57.939Z,34.27
2018-06-08T15:11:26.573Z,29.87
2018-06-08T15:13:55.135Z,31.03
2018-06-08T15:16:23.836Z,34.50
2018-06-08T15:18:52.481Z,29.80
2018-06-08T15:21:21.149Z,29.83
2018-06-08T15:23:49.800Z,28.87
2018-06-08T15:26:18.421Z,32.93
2018-06-08T15:28:47.054Z,32.10
2018-06-08T15:31:15.666Z,31.93
2018-06-08T15:33:44.247Z,32.10
2018-06-08T15:36:12.859Z,30.37
2018-06-08T15:38:41.441Z,29.83
2018-06-08T15:41:10.041Z,30.80
2018-06-08T15:43:38.706Z,27.70
2018-06-08T15:46:07.318Z,28.57
2018-06-08T15:48:35.929Z,32.20
2018-06-08T15:51:04.519Z,28.67
2018-06-08T15:53:33.163Z,30.93
2018-06-08T15:56:01.762Z,29.27
2018-06-08T15:58:30.370Z,29.10
2018-06-08T16:00:59.159Z,29.53
2018-06-08T16:03:27.695Z,28.20
2018-06-08T16:05:56.270Z,27.80
2018-06-08T16:08:24.885Z,29.03
2018-06-08T16:10:53.510Z,30.40
2018-06-08T16:13:22.167Z,33.03
2018-06-08T16:15:50.765Z,29.97
2018-06-08T16:18:19.359Z,29.40
2018-06-08T16:20:48.021Z,27.20
2018-06-08T16:23:16.608Z,37.70
2018-06-08T16:25:45.200Z,33.67
2018-06-08T16:28:13.855Z,35.47
2018-06-08T16:30:43.010Z,30.93
2018-06-08T16:33:12.220Z,32.23
2018-06-08T16:35:40.757Z,34.77
2018-06-08T16:38:09.370Z,26.70
2018-06-08T16:40:37.942Z,29.97
2018-06-08T16:43:06.583Z,35.63
2018-06-08T16:45:35.159Z,34.47
2018-06-08T16:48:03.800Z,34.33
2018-06-08T16:50:32.507Z,29.33
2018-06-08T16:53:01.049Z,33.07
2018-06-08T16:55:29.740Z,31.83
2018-06-08T16:58:02.219Z,38.30
2018-06-08T17:11:59.894Z,37.17
2018-06-08T17:14:28.532Z,29.97
2018-06-08T17:16:57.138Z,37.67
2018-06-08T17:19:25.764Z,29.30
2018-06-08T17:21:54.458Z,34.20
2018-06-08T17:24:23.065Z,32.47
2018-06-08T17:26:51.667Z,31.30
2018-06-08T17:29:20.337Z,34.90
2018-06-08T17:31:48.968Z,31.50
2018-06-08T17:34:17.687Z,31.20
2018-06-08T17:36:46.322Z,33.33
2018-06-08T17:39:14.966Z,33.63
2018-06-08T17:41:43.605Z,29.13
2018-06-08T17:44:12.220Z,31.67
2018-06-08T17:46:40.924Z,30.90
2018-06-08T17:49:09.571Z,26.30
2018-06-08T17:51:38.383Z,25.70
2018-06-08T17:54:07.017Z,31.93
2018-06-08T17:56:35.687Z,25.20
2018-06-08T17:59:04.349Z,28.83
2018-06-08T18:01:32.961Z,30.20
2018-06-08T18:04:01.600Z,26.33
2018-06-08T18:06:30.220Z,26.37
2018-06-08T18:08:58.903Z,35.50
2018-06-08T18:11:27.525Z,29.63
2018-06-08T18:13:56.158Z,30.10
2018-06-08T18:16:24.814Z,31.60
2018-06-08T18:18:53.454Z,28.70
2018-06-08T18:21:22.069Z,24.63
2018-06-08T18:23:50.702Z,35.57
2018-06-08T18:26:19.362Z,31.23
2018-06-08T18:28:48.018Z,32.33
2018-06-08T18:31:16.592Z,26.87
2018-06-08T18:33:45.207Z,37.33
2018-06-08T18:36:13.857Z,28.93
2018-06-08T18:38:42.536Z,28.57
2018-06-08T18:41:11.169Z,28.30
2018-06-08T18:43:39.807Z,33.57
2018-06-08T18:46:08.449Z,29.13
2018-06-08T18:48:37.086Z,31.00
2018-06-08T18:51:05.770Z,26.93
2018-06-08T18:53:34.416Z,28.37
2018-06-08T18:56:03.085Z,25.77
2018-06-08T18:58:31.718Z,24.43
2018-06-08T19:01:00.395Z,32.70
2018-06-08T19:03:29.227Z,25.43
2018-06-08T19:05:57.944Z,26.83
2018-06-08T19:08:26.592Z,24.00
2018-06-08T19:10:55.234Z,31.60
2018-06-08T19:13:23.966Z,25.13
2018-06-08T19:15:52.650Z,30.97
2018-06-08T19:18:21.277Z,26.73
2018-06-08T19:20:49.887Z,28.67
2018-06-08T19:23:18.911Z,24.50
2018-06-08T19:25:47.596Z,33.00
2018-06-08T19:28:16.205Z,31.63
2018-06-08T19:30:44.917Z,30.20
2018-06-08T19:33:13.566Z,27.73
2018-06-08T19:35:42.174Z,29.33
2018-06-08T19:38:10.814Z,31.13
2018-06-08T19:40:39.440Z,22.80
2018-06-08T19:43:08.262Z,33.00
2018-06-08T19:45:37.193Z,26.40
2018-06-08T19:48:05.808Z,27.77
2018-06-08T19:50:34.562Z,31.80
2018-06-08T19:53:03.161Z,27.10
2018-06-08T19:55:31.802Z,24.50
2018-06-08T19:58:00.413Z,32.37
2018-06-08T20:00:28.993Z,30.87
2018-06-08T20:02:57.635Z,29.43
2018-06-08T20:05:26.245Z,29.97
2018-06-08T20:07:54.874Z,29.07
2018-06-08T20:10:23.480Z,28.13
2018-06-08T20:12:52.106Z,28.70
2018-06-08T20:15:20.793Z,29.73
2018-06-08T20:17:49.399Z,27.90
2018-06-08T20:20:18.012Z,32.37
2018-06-08T20:22:46.857Z,28.07
2018-06-08T20:25:15.466Z,30.20
2018-06-08T20:27:44.114Z,31.80
2018-06-08T20:30:12.711Z,33.67
2018-06-08T20:32:41.330Z,30.73
2018-06-08T20:35:09.930Z,34.87
2018-06-08T20:37:38.559Z,37.10
2018-06-08T20:40:07.192Z,34.13
2018-06-08T20:42:35.785Z,35.60
2018-06-08T20:45:04.545Z,34.63
2018-06-08T20:47:33.171Z,38.30
2018-06-08T20:50:01.771Z,33.17
2018-06-08T20:52:30.512Z,32.13
2018-06-08T20:54:59.101Z,32.30
2018-06-08T20:57:28.761Z,32.70
2018-06-08T20:59:57.352Z,40.47
2018-06-08T21:02:25.983Z,30.10
2018-06-08T21:04:54.582Z,35.47
2018-06-08T21:07:23.211Z,36.13
2018-06-08T21:09:51.863Z,39.33
2018-06-08T21:12:20.472Z,38.57
2018-06-08T21:14:49.134Z,41.07
2018-06-08T21:17:17.779Z,36.17
2018-06-08T21:19:46.431Z,38.07
2018-06-08T21:22:15.118Z,34.77
2018-06-08T21:24:43.720Z,39.37
2018-06-08T21:27:12.365Z,36.63
2018-06-08T21:29:41.006Z,35.30
2018-06-08T21:32:09.644Z,33.13
2018-06-08T21:34:38.281Z,37.30
2018-06-08T21:37:06.904Z,39.17
2018-06-08T21:39:35.545Z,36.53
2018-06-08T21:42:04.257Z,36.33
2018-06-08T21:44:32.889Z,44.80
2018-06-08T21:47:01.547Z,42.47
2018-06-08T21:49:30.186Z,41.03
2018-06-08T21:51:58.936Z,35.63
2018-06-08T21:54:27.609Z,42.97
2018-06-08T21:56:56.268Z,36.63
2018-06-08T21:59:24.905Z,42.63
2018-06-08T22:01:53.611Z,38.43
2018-06-08T22:04:22.322Z,42.07
2018-06-08T22:06:50.949Z,41.03
2018-06-08T22:09:19.584Z,39.23
2018-06-08T22:11:48.198Z,38.30
2018-06-08T22:14:16.837Z,42.20
2018-06-08T22:16:45.524Z,45.10
2018-06-08T22:19:14.124Z,40.70
2018-06-08T22:21:42.816Z,42.00
2018-06-08T22:24:11.454Z,36.03
2018-06-08T22:26:40.065Z,39.97
2018-06-08T22:29:08.677Z,41.13
2018-06-08T22:31:37.282Z,43.20
2018-06-08T22:34:06.002Z,42.17
2018-06-08T22:36:34.639Z,36.93
2018-06-08T22:39:03.369Z,37.23
2018-06-08T22:41:31.980Z,37.33
2018-06-08T22:44:00.635Z,44.50
2018-06-08T22:46:29.264Z,36.87
2018-06-08T22:48:57.941Z,35.73
2018-06-08T22:51:26.776Z,36.20
2018-06-08T22:53:55.384Z,38.93
2018-06-08T22:56:24.001Z,32.20
2018-06-08T22:58:52.632Z,33.57
2018-06-08T23:01:21.287Z,34.40
2018-06-08T23:03:49.909Z,34.70
2018-06-08T23:06:18.500Z,38.63
2018-06-08T23:08:47.134Z,33.27
2018-06-08T23:11:15.858Z,35.17
2018-06-08T23:13:44.469Z,37.73
2018-06-08T23:16:13.096Z,37.93
2018-06-08T23:18:41.721Z,33.37
2018-06-08T23:21:10.292Z,32.47
2018-06-08T23:23:38.912Z,32.33
2018-06-08T23:26:07.544Z,35.73
2018-06-08T23:28:36.162Z,38.47
2018-06-08T23:31:04.885Z,30.90
2018-06-08T23:33:33.492Z,33.07
2018-06-08T23:36:02.137Z,31.70
2018-06-08T23:38:30.766Z,31.50
2018-06-08T23:40:59.389Z,32.73
2018-06-08T23:43:27.995Z,32.30
2018-06-08T23:45:56.606Z,30.63
2018-06-08T23:48:25.465Z,28.20
2018-06-08T23:50:54.082Z,28.67
2018-06-08T23:53:22.714Z,28.30
2018-06-08T23:55:51.293Z,30.73
2018-06-08T23:58:19.870Z,28.53
